createdAt,value
2022-12-15T00:00:17.656Z,14.53
2022-12-15T00:03:03.944Z,12.43
2022-12-15T00:05:50.463Z,17.57
2022-12-15T00:08:36.612Z,11.57
2022-12-15T00:11:23.410Z,10.20
2022-12-15T00:14:09.768Z,8.57
2022-12-15T00:16:55.976Z,8.90
2022-12-15T00:19:42.323Z,11.97
2022-12-15T00:22:28.658Z,14.30
2022-12-15T00:25:15.077Z,10.77
2022-12-15T00:28:01.395Z,9.27
2022-12-15T00:30:50.006Z,9.50
2022-12-15T00:33:36.675Z,9.43
2022-12-15T00:36:23.185Z,8.73
2022-12-15T00:38:51.069Z,8.30
2022-12-15T00:41:19.113Z,8.10
2022-12-15T00:43:46.936Z,8.10
2022-12-15T00:46:33.755Z,8.10
2022-12-15T00:49:01.640Z,9.43
2022-12-15T00:51:47.850Z,7.43
2022-12-15T00:54:34.371Z,8.67
2022-12-15T00:57:20.726Z,9.60
2022-12-15T01:00:07.209Z,8.47
2022-12-15T01:02:54.128Z,8.97
2022-12-15T01:05:40.572Z,9.03
2022-12-15T01:08:26.795Z,7.57
2022-12-15T01:11:13.356Z,8.10
2022-12-15T01:13:59.903Z,9.43
2022-12-15T01:16:46.251Z,8.93
2022-12-15T01:19:32.673Z,9.37
2022-12-15T01:22:00.463Z,7.40
2022-12-15T01:24:28.208Z,9.73
2022-12-15T01:26:55.943Z,11.53
2022-12-15T01:29:23.703Z,8.80
2022-12-15T01:31:51.451Z,7.97
2022-12-15T01:34:21.206Z,9.60
2022-12-15T01:36:48.908Z,7.23
2022-12-15T01:39:17.258Z,7.17
2022-12-15T01:41:45.001Z,8.67
2022-12-15T01:44:20.917Z,8.23
2022-12-15T01:46:50.238Z,7.77
2022-12-15T01:49:22.050Z,7.33
2022-12-15T01:51:51.003Z,8.90
2022-12-15T01:54:24.577Z,6.10
2022-12-15T01:56:55.445Z,6.50
2022-12-15T01:59:32.472Z,8.47
2022-12-15T02:02:00.356Z,6.50
2022-12-15T02:04:28.165Z,5.33
2022-12-15T02:06:55.939Z,6.17
2022-12-15T02:09:23.733Z,6.80
2022-12-15T02:12:10.854Z,9.50
2022-12-15T02:14:54.519Z,5.37
2022-12-15T02:17:30.512Z,6.23
2022-12-15T02:20:31.280Z,6.23
2022-12-15T02:23:17.595Z,8.47
2022-12-15T02:25:57.232Z,7.33
2022-12-15T02:28:46.567Z,7.27
2022-12-15T02:31:49.786Z,6.97
2022-12-15T02:34:24.695Z,6.57
2022-12-15T02:36:56.515Z,6.40
2022-12-15T02:39:24.664Z,7.10
2022-12-15T02:41:54.078Z,6.53
2022-12-15T02:44:28.179Z,8.50
2022-12-15T02:47:07.050Z,7.37
2022-12-15T02:49:49.810Z,8.10
2022-12-15T02:52:36.636Z,7.43
2022-12-15T02:55:13.254Z,7.10
2022-12-15T02:57:57.191Z,10.10
2022-12-15T03:00:24.956Z,12.60
2022-12-15T03:02:54.006Z,9.27
2022-12-15T03:05:22.101Z,9.07
2022-12-15T03:07:54.208Z,8.67
2022-12-15T03:10:24.530Z,7.33
2022-12-15T03:12:52.575Z,7.53
2022-12-15T03:15:20.506Z,8.90
2022-12-15T03:17:48.248Z,9.47
2022-12-15T03:20:16.000Z,7.13
2022-12-15T03:22:43.684Z,14.13
2022-12-15T03:25:11.531Z,16.03
2022-12-15T03:27:39.267Z,14.00
2022-12-15T03:30:07.709Z,9.23
2022-12-15T03:32:35.416Z,11.87
2022-12-15T03:35:03.376Z,7.63
2022-12-15T03:37:31.046Z,8.90
2022-12-15T03:39:58.818Z,7.27
2022-12-15T03:42:45.126Z,7.77
2022-12-15T03:45:12.810Z,5.80
2022-12-15T03:47:43.907Z,6.43
2022-12-15T03:50:12.069Z,4.57
2022-12-15T03:52:39.788Z,5.67
2022-12-15T03:55:08.782Z,8.37
2022-12-15T03:57:36.608Z,4.70
2022-12-15T04:00:05.970Z,9.83
2022-12-15T04:02:33.871Z,4.07
2022-12-15T04:05:01.827Z,4.23
2022-12-15T04:07:29.565Z,4.97
2022-12-15T04:09:57.317Z,11.37
2022-12-15T04:12:25.093Z,15.80
2022-12-15T04:14:52.867Z,3.77
2022-12-15T04:17:20.672Z,4.00
2022-12-15T04:20:06.959Z,4.07
2022-12-15T04:22:34.710Z,3.87
2022-12-15T04:25:21.202Z,4.30
2022-12-15T04:28:07.621Z,4.40
2022-12-15T04:30:53.959Z,6.87
2022-12-15T04:33:40.250Z,3.47
2022-12-15T04:36:28.272Z,4.37
2022-12-15T04:39:14.457Z,4.47
2022-12-15T04:42:00.631Z,3.63
2022-12-15T04:44:50.141Z,10.10
2022-12-15T04:47:36.916Z,3.40
2022-12-15T04:50:23.400Z,3.40
2022-12-15T04:53:09.789Z,6.07
2022-12-15T04:55:56.992Z,5.53
2022-12-15T04:58:43.557Z,4.70
2022-12-15T05:01:30.099Z,3.97
2022-12-15T05:04:16.730Z,3.67
2022-12-15T05:07:03.279Z,3.87
2022-12-15T05:09:49.550Z,10.30
2022-12-15T05:12:35.993Z,3.47
2022-12-15T05:15:22.617Z,3.00
2022-12-15T05:18:08.976Z,4.67
2022-12-15T05:20:55.233Z,4.57
2022-12-15T05:23:41.793Z,4.47
2022-12-15T05:26:28.407Z,8.60
2022-12-15T05:29:15.007Z,4.47
2022-12-15T05:31:53.235Z,6.47
2022-12-15T05:34:24.863Z,4.13
2022-12-15T05:36:52.812Z,6.77
2022-12-15T05:39:20.825Z,4.03
2022-12-15T05:41:48.739Z,2.20
2022-12-15T05:44:16.579Z,2.37
2022-12-15T05:46:44.557Z,2.50
2022-12-15T05:49:14.749Z,2.70
2022-12-15T05:51:43.202Z,2.13
2022-12-15T05:54:11.834Z,2.07
2022-12-15T05:56:39.835Z,1.50
2022-12-15T05:59:07.578Z,2.30
2022-12-15T06:01:36.617Z,2.03
2022-12-15T06:04:04.394Z,5.43
2022-12-15T06:06:32.226Z,3.93
2022-12-15T06:09:00.403Z,1.67
2022-12-15T06:11:28.211Z,1.60
2022-12-15T06:13:56.364Z,1.97
2022-12-15T06:16:24.884Z,2.47
2022-12-15T06:18:57.613Z,2.40
2022-12-15T06:21:26.998Z,2.50
2022-12-15T06:23:54.894Z,2.60
2022-12-15T06:26:23.700Z,3.03
2022-12-15T06:28:51.513Z,2.90
2022-12-15T06:31:20.799Z,2.20
2022-12-15T06:33:48.580Z,2.33
2022-12-15T06:36:16.700Z,3.20
2022-12-15T06:38:45.236Z,2.23
2022-12-15T06:41:19.285Z,2.13
2022-12-15T06:43:54.117Z,2.47
2022-12-15T06:46:22.034Z,2.60
2022-12-15T06:48:49.821Z,2.77
2022-12-15T06:51:17.879Z,3.77
2022-12-15T06:53:53.924Z,3.23
2022-12-15T06:56:34.398Z,2.37
2022-12-15T06:59:02.896Z,4.20
2022-12-15T07:01:31.190Z,4.53
2022-12-15T07:04:01.126Z,4.73
2022-12-15T07:06:29.438Z,3.10
2022-12-15T07:09:00.146Z,2.97
2022-12-15T07:11:27.871Z,2.60
2022-12-15T07:13:55.746Z,2.90
2022-12-15T07:16:23.908Z,2.40
2022-12-15T07:18:51.673Z,2.60
2022-12-15T07:21:19.364Z,2.80
2022-12-15T07:23:54.625Z,3.37
2022-12-15T07:26:23.511Z,2.33
2022-12-15T07:28:51.546Z,2.83
2022-12-15T07:31:19.373Z,2.90
2022-12-15T07:33:49.359Z,3.77
2022-12-15T07:36:17.239Z,4.80
2022-12-15T07:38:50.464Z,6.87
2022-12-15T07:41:19.229Z,4.40
2022-12-15T07:43:48.247Z,3.90
2022-12-15T07:46:16.531Z,4.17
2022-12-15T07:48:44.437Z,5.60
2022-12-15T07:51:21.221Z,5.13
2022-12-15T07:53:51.206Z,7.10
2022-12-15T07:56:19.475Z,3.90
2022-12-15T07:58:47.485Z,4.00
2022-12-15T08:01:15.851Z,4.90
2022-12-15T08:03:43.894Z,5.73
2022-12-15T08:06:13.194Z,4.30
2022-12-15T08:08:41.118Z,4.93
2022-12-15T08:11:09.818Z,4.07
2022-12-15T08:16:25.843Z,7.13
2022-12-15T08:18:53.935Z,5.00
2022-12-15T08:21:21.703Z,5.57
2022-12-15T08:23:49.401Z,4.47
2022-12-15T08:26:18.084Z,4.63
2022-12-15T08:28:46.043Z,4.20
2022-12-15T08:31:17.363Z,11.57
2022-12-15T08:33:45.827Z,7.87
2022-12-15T08:36:14.820Z,5.17
2022-12-15T08:38:42.980Z,5.73
2022-12-15T08:41:12.579Z,4.97
2022-12-15T08:43:47.474Z,5.33
2022-12-15T08:46:17.163Z,4.87
2022-12-15T08:48:45.181Z,4.93
2022-12-15T08:51:13.216Z,6.03
2022-12-15T08:53:40.885Z,4.97
2022-12-15T08:56:16.961Z,6.40
2022-12-15T08:58:45.299Z,4.10
2022-12-15T09:01:24.393Z,6.87
2022-12-15T09:03:52.933Z,5.43
2022-12-15T09:06:22.598Z,5.30
2022-12-15T09:08:50.777Z,6.30
2022-12-15T09:11:18.791Z,6.10
2022-12-15T09:13:46.567Z,5.13
2022-12-15T09:16:16.318Z,5.93
2022-12-15T09:18:48.095Z,5.43
2022-12-15T09:21:16.319Z,6.10
2022-12-15T09:23:44.117Z,7.17
2022-12-15T09:26:13.540Z,5.93
2022-12-15T09:28:41.465Z,33.73
2022-12-15T09:31:23.277Z,9.30
2022-12-15T09:33:52.756Z,6.80
2022-12-15T09:36:20.794Z,6.23
2022-12-15T09:38:48.584Z,6.80
2022-12-15T09:41:16.192Z,5.73
2022-12-15T09:44:02.824Z,6.70
2022-12-15T09:47:08.154Z,5.10
2022-12-15T09:49:50.923Z,6.77
2022-12-15T09:52:29.185Z,5.90
2022-12-15T09:54:59.042Z,5.40
2022-12-15T09:57:44.189Z,6.57
2022-12-15T10:00:34.035Z,5.70
2022-12-15T10:03:20.916Z,7.30
2022-12-15T10:06:17.063Z,8.97
2022-12-15T10:08:57.172Z,8.60
2022-12-15T10:11:44.132Z,7.30
2022-12-15T10:14:32.053Z,6.53
2022-12-15T10:17:11.905Z,7.07
2022-12-15T10:19:42.604Z,9.10
2022-12-15T10:22:23.904Z,7.33
2022-12-15T10:27:59.883Z,15.23
2022-12-15T10:30:27.761Z,8.70
2022-12-15T10:33:27.208Z,10.33
2022-12-15T10:35:55.299Z,9.73
2022-12-15T10:38:26.596Z,8.17
2022-12-15T10:40:59.851Z,8.80
2022-12-15T10:43:38.567Z,10.20
2022-12-15T10:46:17.165Z,10.33
2022-12-15T10:48:49.547Z,9.47
2022-12-15T10:51:31.039Z,11.13
2022-12-15T10:54:01.810Z,11.33
2022-12-15T10:56:33.653Z,11.27
2022-12-15T10:59:22.299Z,8.87
2022-12-15T11:04:38.075Z,9.10
2022-12-15T11:07:13.162Z,9.70
2022-12-15T11:09:41.028Z,10.20
2022-12-15T11:12:40.755Z,9.77
2022-12-15T11:15:23.777Z,10.57
2022-12-15T11:17:59.364Z,14.00
2022-12-15T11:20:57.517Z,182.27
2022-12-15T11:23:40.168Z,23.17
2022-12-15T11:26:38.990Z,13.23
2022-12-15T11:29:25.025Z,13.13
2022-12-15T11:31:53.656Z,11.40
2022-12-15T11:34:26.335Z,10.63
2022-12-15T11:37:21.220Z,10.93
2022-12-15T11:39:51.958Z,11.20
2022-12-15T11:42:53.635Z,13.57
2022-12-15T11:45:51.169Z,10.90
2022-12-15T11:48:20.607Z,10.57
2022-12-15T11:50:51.101Z,10.77
2022-12-15T11:53:47.427Z,11.87
2022-12-15T11:56:29.103Z,10.60
2022-12-15T11:59:15.130Z,11.23
2022-12-15T12:02:26.987Z,11.47
2022-12-15T12:05:39.801Z,12.07
2022-12-15T12:08:10.319Z,11.50
2022-12-15T12:11:13.534Z,12.83
2022-12-15T12:13:59.611Z,37.13
2022-12-15T12:16:36.343Z,12.67
2022-12-15T12:19:12.119Z,13.50
2022-12-15T12:21:42.230Z,11.60
2022-12-15T12:24:18.002Z,15.50
2022-12-15T12:26:51.148Z,14.30
2022-12-15T12:29:35.791Z,13.17
2022-12-15T12:32:18.582Z,11.93
2022-12-15T12:35:30.488Z,11.50
2022-12-15T12:37:50.204Z,13.23
2022-12-15T12:40:20.153Z,12.67
2022-12-15T12:43:00.438Z,14.43
2022-12-15T12:45:35.365Z,14.00
2022-12-15T12:48:08.168Z,13.70
2022-12-15T12:50:36.020Z,14.17
2022-12-15T12:53:04.203Z,14.80
2022-12-15T12:55:42.369Z,15.77
2022-12-15T12:58:39.555Z,15.60
2022-12-15T13:01:20.499Z,17.03
2022-12-15T13:03:49.051Z,15.23
2022-12-15T13:06:22.466Z,16.60
2022-12-15T13:08:53.910Z,17.90
2022-12-15T13:11:49.784Z,48.93
2022-12-15T13:14:37.120Z,19.60
2022-12-15T13:17:28.166Z,17.70
2022-12-15T13:20:01.922Z,19.03
2022-12-15T13:22:34.097Z,16.97
2022-12-15T13:25:01.837Z,17.57
2022-12-15T13:27:39.402Z,18.77
2022-12-15T13:30:07.053Z,20.33
2022-12-15T13:32:34.884Z,20.70
2022-12-15T13:35:14.075Z,20.43
2022-12-15T13:37:57.596Z,18.77
2022-12-15T13:40:36.181Z,23.53
2022-12-15T13:43:06.578Z,24.20
2022-12-15T13:45:54.953Z,24.27
2022-12-15T13:48:37.636Z,22.10
2022-12-15T13:51:27.622Z,22.60
2022-12-15T13:54:23.755Z,23.20
2022-12-15T13:57:11.834Z,21.67
2022-12-15T13:59:53.205Z,21.40
2022-12-15T14:02:32.039Z,24.23
2022-12-15T14:05:24.223Z,22.07
2022-12-15T14:07:55.188Z,21.90
2022-12-15T14:10:50.906Z,24.37
2022-12-15T14:13:27.209Z,22.57
2022-12-15T14:16:04.262Z,24.50
2022-12-15T14:18:36.233Z,29.13
2022-12-15T14:21:07.469Z,26.63
2022-12-15T14:23:52.445Z,25.50
2022-12-15T14:26:32.831Z,25.53
2022-12-15T14:29:06.112Z,28.10
2022-12-15T14:31:34.047Z,24.67
2022-12-15T14:34:10.240Z,27.13
2022-12-15T14:36:38.026Z,22.73
2022-12-15T14:39:07.594Z,25.50
2022-12-15T14:41:40.031Z,26.13
2022-12-15T14:44:36.749Z,25.67
2022-12-15T14:47:08.499Z,23.97
2022-12-15T14:49:43.999Z,26.23
2022-12-15T14:52:30.478Z,24.60
2022-12-15T14:54:59.981Z,22.53
2022-12-15T14:57:40.436Z,25.00
2022-12-15T15:00:31.755Z,24.53
2022-12-15T15:03:04.147Z,9.13
2022-12-15T15:06:13.462Z,24.80
2022-12-15T15:08:48.577Z,22.53
2022-12-15T15:11:26.450Z,23.83
2022-12-15T15:13:58.358Z,26.10
2022-12-15T15:16:26.270Z,25.13
2022-12-15T15:18:55.152Z,41.47
2022-12-15T15:21:27.508Z,27.40
2022-12-15T15:24:05.944Z,24.90
2022-12-15T15:26:33.927Z,25.57
2022-12-15T15:29:01.698Z,26.23
2022-12-15T15:31:41.055Z,24.73
2022-12-15T15:34:09.758Z,27.20
2022-12-15T15:36:40.878Z,25.17
2022-12-15T15:39:21.292Z,24.90
2022-12-15T15:41:49.099Z,23.00
2022-12-15T15:44:16.953Z,25.87
2022-12-15T15:46:53.776Z,26.63
2022-12-15T15:49:22.111Z,25.80
2022-12-15T15:51:49.863Z,25.07
2022-12-15T15:54:23.558Z,28.63
2022-12-15T15:56:51.248Z,27.10
2022-12-15T15:59:22.011Z,29.97
2022-12-15T16:01:57.052Z,27.83
2022-12-15T16:04:25.372Z,29.83
2022-12-15T16:06:53.561Z,29.23
2022-12-15T16:09:21.371Z,31.03
2022-12-15T16:11:49.175Z,33.13
2022-12-15T16:14:17.862Z,32.77
2022-12-15T16:16:45.740Z,34.43
2022-12-15T16:19:13.578Z,30.30
2022-12-15T16:21:41.564Z,29.90
2022-12-15T16:24:11.201Z,35.27
2022-12-15T16:26:40.039Z,38.13
2022-12-15T16:29:15.732Z,40.07
2022-12-15T16:31:46.595Z,35.33
2022-12-15T16:34:15.415Z,33.93
2022-12-15T16:36:43.335Z,32.17
2022-12-15T16:39:26.612Z,33.13
2022-12-15T16:41:55.096Z,31.87
2022-12-15T16:44:23.577Z,34.13
2022-12-15T16:46:52.008Z,34.30
2022-12-15T16:49:19.865Z,31.30
2022-12-15T16:51:49.167Z,34.93
2022-12-15T16:54:22.803Z,34.87
2022-12-15T16:56:50.661Z,31.17
2022-12-15T16:59:35.616Z,35.33
2022-12-15T17:02:30.474Z,31.27
2022-12-15T17:04:58.591Z,34.00
2022-12-15T17:07:27.686Z,33.63
2022-12-15T17:09:55.422Z,34.37
2022-12-15T17:12:23.213Z,30.77
2022-12-15T17:14:50.963Z,30.20
2022-12-15T17:17:21.269Z,33.20
2022-12-15T17:20:28.506Z,33.80
2022-12-15T17:22:38.563Z,32.83
2022-12-15T17:25:06.839Z,31.83
2022-12-15T17:27:34.643Z,33.10
2022-12-15T17:30:02.641Z,31.93
2022-12-15T17:32:30.691Z,30.33
2022-12-15T17:34:58.555Z,27.80
2022-12-15T17:37:30.570Z,35.17
2022-12-15T17:40:03.169Z,34.33
2022-12-15T17:42:30.943Z,30.07
2022-12-15T17:44:58.799Z,33.80
2022-12-15T17:47:26.607Z,32.27
2022-12-15T17:49:54.561Z,32.33
2022-12-15T17:52:30.027Z,31.27
2022-12-15T17:54:57.939Z,35.93
2022-12-15T17:57:25.818Z,74.17
2022-12-15T17:59:53.637Z,33.13
2022-12-15T18:02:21.503Z,31.83
2022-12-15T18:04:49.387Z,32.97
2022-12-15T18:07:21.784Z,29.67
2022-12-15T18:09:50.308Z,31.37
2022-12-15T18:12:23.477Z,28.83
2022-12-15T18:14:51.514Z,32.37
2022-12-15T18:17:19.376Z,29.17
2022-12-15T18:19:47.554Z,28.77
2022-12-15T18:22:23.587Z,33.20
2022-12-15T18:24:52.629Z,31.43
2022-12-15T18:27:27.599Z,32.30
2022-12-15T18:29:55.552Z,27.37
2022-12-15T18:32:27.653Z,27.27
2022-12-15T18:34:55.903Z,29.23
2022-12-15T18:37:24.275Z,29.33
2022-12-15T18:39:52.098Z,30.47
2022-12-15T18:42:21.529Z,28.50
2022-12-15T18:44:51.053Z,30.57
2022-12-15T18:47:19.916Z,29.10
2022-12-15T18:49:47.781Z,29.10
2022-12-15T18:52:23.254Z,33.70
2022-12-15T18:54:52.166Z,29.50
2022-12-15T18:57:31.184Z,32.70
2022-12-15T19:00:10.762Z,31.57
2022-12-15T19:02:38.849Z,29.93
2022-12-15T19:05:07.603Z,31.87
2022-12-15T19:07:35.567Z,31.50
2022-12-15T19:10:03.401Z,32.27
2022-12-15T19:12:31.259Z,29.87
2022-12-15T19:14:59.089Z,33.27
2022-12-15T19:17:45.344Z,31.43
2022-12-15T19:20:36.767Z,30.50
2022-12-15T19:23:04.840Z,30.20
2022-12-15T19:25:32.735Z,31.10
2022-12-15T19:28:00.923Z,28.60
2022-12-15T19:30:30.325Z,33.97
2022-12-15T19:32:58.244Z,30.73
2022-12-15T19:35:28.455Z,30.10
2022-12-15T19:37:58.110Z,31.50
2022-12-15T19:40:31.711Z,31.93
2022-12-15T19:43:00.451Z,34.00
2022-12-15T19:45:30.125Z,33.57
2022-12-15T19:47:58.147Z,32.03
2022-12-15T19:50:37.336Z,32.53
2022-12-15T19:53:08.315Z,30.67
2022-12-15T19:55:36.599Z,31.23
2022-12-15T19:58:29.039Z,31.93
2022-12-15T20:00:58.342Z,30.73
2022-12-15T20:03:26.733Z,29.53
2022-12-15T20:05:55.209Z,32.83
2022-12-15T20:08:25.221Z,27.67
2022-12-15T20:10:53.387Z,31.27
2022-12-15T20:13:21.237Z,32.47
2022-12-15T20:15:49.195Z,29.13
2022-12-15T20:18:17.062Z,28.93
2022-12-15T20:20:46.633Z,25.87
2022-12-15T20:23:20.449Z,26.77
2022-12-15T20:25:48.435Z,29.00
2022-12-15T20:28:24.301Z,24.20
2022-12-15T20:30:52.463Z,26.97
2022-12-15T20:33:20.657Z,27.63
2022-12-15T20:35:49.178Z,44.07
2022-12-15T20:38:29.105Z,30.77
2022-12-15T20:40:56.983Z,23.93
2022-12-15T20:43:25.031Z,24.93
2022-12-15T20:46:03.905Z,27.03
2022-12-15T20:48:31.943Z,25.20
2022-12-15T20:51:04.226Z,26.57
2022-12-15T20:53:34.529Z,25.73
2022-12-15T20:56:02.713Z,25.10
2022-12-15T20:58:33.254Z,21.10
2022-12-15T21:01:01.556Z,23.50
2022-12-15T21:03:31.515Z,23.70
2022-12-15T21:05:59.849Z,21.50
2022-12-15T21:08:29.364Z,20.53
2022-12-15T21:11:12.034Z,23.13
2022-12-15T21:13:39.814Z,22.23
2022-12-15T21:16:08.146Z,21.07
2022-12-15T21:21:33.232Z,21.37
2022-12-15T21:24:01.644Z,20.63
2022-12-15T21:26:29.768Z,20.13
2022-12-15T21:28:59.357Z,21.87
2022-12-15T21:31:27.290Z,19.43
2022-12-15T21:33:55.172Z,18.57
2022-12-15T21:36:22.996Z,18.13
2022-12-15T21:38:52.018Z,18.43
2022-12-15T21:41:21.316Z,20.97
2022-12-15T21:43:49.205Z,19.60
2022-12-15T21:46:17.711Z,46.40
2022-12-15T21:49:04.487Z,21.20
2022-12-15T21:51:39.167Z,22.73
2022-12-15T21:54:07.389Z,22.17
2022-12-15T21:56:35.396Z,23.77
2022-12-15T21:59:03.317Z,18.97
2022-12-15T22:01:31.481Z,20.03
2022-12-15T22:03:59.867Z,19.90
2022-12-15T22:06:29.016Z,20.77
2022-12-15T22:08:59.757Z,19.30
2022-12-15T22:11:28.902Z,20.80
2022-12-15T22:13:58.177Z,20.93
2022-12-15T22:16:26.017Z,19.30
2022-12-15T22:18:56.304Z,19.20
2022-12-15T22:21:24.862Z,19.73
2022-12-15T22:23:52.923Z,17.23
2022-12-15T22:26:30.071Z,19.77
2022-12-15T22:28:58.497Z,18.13
2022-12-15T22:31:26.638Z,16.93
2022-12-15T22:33:59.160Z,19.87
2022-12-15T22:36:27.005Z,19.00
2022-12-15T22:38:55.009Z,19.27
2022-12-15T22:41:23.409Z,22.53
2022-12-15T22:43:55.017Z,19.77
2022-12-15T22:46:24.217Z,20.00
2022-12-15T22:48:52.460Z,21.50
2022-12-15T22:51:22.557Z,23.63
2022-12-15T22:53:50.477Z,21.57
2022-12-15T22:56:26.765Z,23.33
2022-12-15T22:58:57.537Z,21.57
2022-12-15T23:01:29.883Z,18.60
2022-12-15T23:03:57.731Z,20.10
2022-12-15T23:06:26.010Z,21.37
2022-12-15T23:08:55.845Z,20.37
2022-12-15T23:11:39.012Z,18.73
2022-12-15T23:14:17.352Z,18.73
2022-12-15T23:16:46.056Z,18.27
2022-12-15T23:19:24.715Z,20.80
2022-12-15T23:21:52.747Z,19.80
2022-12-15T23:24:20.483Z,16.83
2022-12-15T23:26:48.232Z,16.37
2022-12-15T23:29:16.117Z,15.23
2022-12-15T23:31:44.255Z,17.00
2022-12-15T23:34:12.208Z,17.47
2022-12-15T23:36:39.959Z,18.63
2022-12-15T23:39:07.735Z,16.43
2022-12-15T23:41:36.352Z,15.23
2022-12-15T23:44:04.121Z,15.63
2022-12-15T23:46:32.094Z,15.83
2022-12-15T23:49:00.811Z,16.07
2022-12-15T23:51:28.557Z,15.50
2022-12-15T23:53:56.433Z,14.93
2022-12-15T23:56:25.182Z,15.27
2022-12-15T23:58:57.762Z,15.73
